Time;durP1;ratioP1;P1;durP2;ratioP2;P2;SDS_P1;SDS_P2;PMS_P1;PMS_P2;Temp;Humidity;BMP_temperature;BMP_pressure;BME280_temperature;BME280_humidity;BME280_pressure;Samples;Min_cycle;Max_cycle;Signal;HPM_P1;HPM_P2
2024/04/10 00:02:03;;;;;;;5.80;1.87;;;;;;;;;;5221922;27;20279;-58
2024/04/10 00:04:29;;;;;;;4.40;2.07;;;;;;;;;;5219586;27;20247;-57
2024/04/10 00:06:55;;;;;;;7.53;2.83;;;;;;;;;;5232668;27;20233;-57
2024/04/10 00:09:21;;;;;;;4.80;1.97;;;;;;;;;;5218617;27;20228;-57
2024/04/10 00:11:47;;;;;;;5.83;2.10;;;;;;;;;;5239463;27;20229;-58
2024/04/10 00:14:16;;;;;;;5.73;2.17;;;;;;;;;;5237740;27;20286;-57
2024/04/10 00:16:42;;;;;;;5.53;2.30;;;;;;;;;;5211235;27;20684;-57
2024/04/10 00:19:08;;;;;;;4.53;2.13;;;;;;;;;;5207931;27;20314;-57
2024/04/10 00:21:35;;;;;;;5.50;2.00;;;;;;;;;;5215912;27;20241;-57
2024/04/10 00:24:01;;;;;;;6.73;2.00;;;;;;;;;;5239556;27;20279;-58
2024/04/10 00:26:27;;;;;;;9.77;2.83;;;;;;;;;;5208842;27;20272;-57
2024/04/10 00:28:53;;;;;;;3.03;2.23;;;;;;;;;;5207813;27;20233;-56
2024/04/10 00:31:19;;;;;;;4.00;2.00;;;;;;;;;;5232294;27;20275;-57
2024/04/10 00:33:45;;;;;;;5.33;2.03;;;;;;;;;;5227964;27;20232;-58
2024/04/10 00:36:11;;;;;;;5.53;2.33;;;;;;;;;;5241903;27;20259;-58
2024/04/10 00:38:38;;;;;;;5.43;2.00;;;;;;;;;;5211831;27;20309;-58
2024/04/10 00:41:05;;;;;;;5.73;1.77;;;;;;;;;;5215320;27;20715;-58
2024/04/10 00:43:31;;;;;;;5.00;1.70;;;;;;;;;;5232561;27;20240;-58
2024/04/10 00:45:57;;;;;;;4.70;2.10;;;;;;;;;;5231824;27;20232;-58
2024/04/10 00:48:23;;;;;;;3.83;2.10;;;;;;;;;;5208984;27;20238;-58
2024/04/10 00:50:50;;;;;;;6.33;2.27;;;;;;;;;;5210152;27;20268;-58
2024/04/10 00:53:16;;;;;;;4.80;2.17;;;;;;;;;;5209428;27;20234;-58
2024/04/10 00:55:42;;;;;;;7.03;3.07;;;;;;;;;;5215260;27;20350;-58
2024/04/10 00:58:09;;;;;;;9.13;2.30;;;;;;;;;;5242356;27;20239;-58
2024/04/10 01:00:35;;;;;;;5.23;2.17;;;;;;;;;;5241420;27;20236;-58
2024/04/10 01:03:01;;;;;;;7.03;2.40;;;;;;;;;;5241957;27;20893;-58
2024/04/10 01:05:27;;;;;;;5.57;2.83;;;;;;;;;;5215927;27;20237;-58
2024/04/10 01:07:53;;;;;;;7.53;2.27;;;;;;;;;;5241531;27;20224;-58
2024/04/10 01:10:19;;;;;;;6.50;2.43;;;;;;;;;;5236477;27;20283;-58
2024/04/10 01:12:45;;;;;;;4.80;2.30;;;;;;;;;;5211369;27;20237;-58
2024/04/10 01:15:12;;;;;;;5.33;2.50;;;;;;;;;;5222930;27;20287;-58
2024/04/10 01:17:38;;;;;;;4.90;2.17;;;;;;;;;;5226615;27;20236;-58
2024/04/10 01:20:08;;;;;;;7.87;1.90;;;;;;;;;;5215483;27;20556;-58
2024/04/10 01:22:35;;;;;;;4.33;2.20;;;;;;;;;;5210005;27;20229;-58
2024/04/10 01:25:01;;;;;;;6.10;2.07;;;;;;;;;;5221902;27;20673;-58
2024/04/10 01:27:27;;;;;;;6.83;2.33;;;;;;;;;;5208502;27;20283;-58
2024/04/10 01:29:53;;;;;;;8.33;2.40;;;;;;;;;;5211609;27;20358;-58
2024/04/10 01:32:19;;;;;;;4.37;1.97;;;;;;;;;;5211299;27;20616;-58
2024/04/10 01:34:45;;;;;;;7.90;2.33;;;;;;;;;;5209751;27;20229;-58
2024/04/10 01:37:11;;;;;;;9.23;2.90;;;;;;;;;;5208393;27;20572;-58
2024/04/10 01:39:37;;;;;;;6.40;2.27;;;;;;;;;;5218284;27;20232;-58
2024/04/10 01:42:03;;;;;;;7.87;1.97;;;;;;;;;;5217126;27;20338;-58
2024/04/10 01:44:29;;;;;;;8.23;2.33;;;;;;;;;;5239348;27;20242;-57
2024/04/10 01:46:55;;;;;;;5.47;2.27;;;;;;;;;;5235201;27;20279;-57
2024/04/10 01:49:21;;;;;;;5.87;2.33;;;;;;;;;;5220182;27;20275;-57
2024/04/10 01:51:47;;;;;;;6.43;2.40;;;;;;;;;;5223876;27;20700;-57
2024/04/10 01:54:13;;;;;;;3.93;2.03;;;;;;;;;;5209455;27;20237;-57
2024/04/10 01:56:40;;;;;;;9.30;3.57;;;;;;;;;;5209882;27;20387;-57
2024/04/10 01:59:06;;;;;;;9.63;2.33;;;;;;;;;;5234082;27;20696;-57
2024/04/10 02:01:34;;;;;;;5.00;2.37;;;;;;;;;;5215483;27;20268;-56
2024/04/10 02:04:00;;;;;;;7.47;2.77;;;;;;;;;;5209775;27;20305;-57
2024/04/10 02:06:26;;;;;;;6.07;2.07;;;;;;;;;;5217121;27;20235;-56
2024/04/10 02:08:52;;;;;;;5.73;2.70;;;;;;;;;;5240205;27;20296;-57
2024/04/10 02:11:28;;;;;;;7.93;2.80;;;;;;;;;;5209826;27;20748;-58
2024/04/10 02:13:54;;;;;;;6.80;1.87;;;;;;;;;;5208795;27;20252;-57
2024/04/10 02:16:24;;;;;;;8.20;2.47;;;;;;;;;;5209744;27;20233;-57
2024/04/10 02:18:50;;;;;;;4.77;2.37;;;;;;;;;;5230246;27;20605;-56
2024/04/10 02:21:17;;;;;;;4.30;1.93;;;;;;;;;;5219927;27;20678;-56
2024/04/10 02:23:43;;;;;;;7.73;2.53;;;;;;;;;;5207439;27;20249;-57
2024/04/10 02:26:10;;;;;;;5.63;2.37;;;;;;;;;;5223698;27;20259;-58
2024/04/10 02:28:36;;;;;;;7.73;2.20;;;;;;;;;;5219855;27;20240;-57
2024/04/10 02:31:02;;;;;;;5.63;1.80;;;;;;;;;;5228021;27;20276;-56
2024/04/10 02:33:33;;;;;;;5.90;2.47;;;;;;;;;;5221792;27;20295;-57
2024/04/10 02:35:59;;;;;;;7.40;2.43;;;;;;;;;;5218269;27;20237;-57
2024/04/10 02:38:26;;;;;;;8.80;3.20;;;;;;;;;;5235321;27;20611;-57
2024/04/10 02:40:52;;;;;;;5.77;2.30;;;;;;;;;;5219089;27;20235;-57
2024/04/10 02:43:18;;;;;;;6.17;2.10;;;;;;;;;;5236604;27;20227;-57
2024/04/10 02:45:53;;;;;;;4.30;1.83;;;;;;;;;;5228180;27;20236;-57
2024/04/10 02:48:19;;;;;;;6.67;2.03;;;;;;;;;;5208693;27;20355;-56
2024/04/10 02:50:45;;;;;;;7.03;2.53;;;;;;;;;;5207999;27;20283;-57
2024/04/10 02:53:11;;;;;;;4.53;2.13;;;;;;;;;;5213806;27;20540;-58
2024/04/10 02:55:37;;;;;;;4.97;2.50;;;;;;;;;;5227174;27;20264;-58
2024/04/10 02:58:03;;;;;;;4.93;2.47;;;;;;;;;;5207564;27;20331;-58
2024/04/10 03:00:29;;;;;;;6.50;2.00;;;;;;;;;;5215323;27;20287;-58
2024/04/10 03:02:55;;;;;;;5.43;2.20;;;;;;;;;;5239375;27;20338;-57
2024/04/10 03:05:22;;;;;;;7.30;2.37;;;;;;;;;;5225357;27;20281;-56
2024/04/10 03:07:49;;;;;;;5.80;2.63;;;;;;;;;;5207323;27;20676;-58
2024/04/10 03:10:15;;;;;;;9.13;2.80;;;;;;;;;;5222348;27;20339;-57
2024/04/10 03:12:41;;;;;;;5.60;2.40;;;;;;;;;;5217575;27;20240;-56
2024/04/10 03:15:09;;;;;;;8.33;2.80;;;;;;;;;;5208040;27;20233;-57
2024/04/10 03:17:35;;;;;;;5.63;2.50;;;;;;;;;;5238722;27;20290;-57
2024/04/10 03:20:02;;;;;;;5.27;2.80;;;;;;;;;;5235980;27;20307;-57
2024/04/10 03:22:28;;;;;;;7.90;2.50;;;;;;;;;;5226899;27;20244;-57
2024/04/10 03:24:54;;;;;;;9.23;2.80;;;;;;;;;;5210768;27;20227;-57
2024/04/10 03:27:20;;;;;;;9.13;3.13;;;;;;;;;;5235994;27;20798;-57
2024/04/10 03:29:46;;;;;;;10.50;3.10;;;;;;;;;;5224344;27;20343;-57
2024/04/10 03:32:12;;;;;;;5.83;2.23;;;;;;;;;;5208127;27;20233;-57
2024/04/10 03:34:38;;;;;;;6.87;2.57;;;;;;;;;;5210485;27;20721;-57
2024/04/10 03:37:04;;;;;;;5.40;2.50;;;;;;;;;;5208575;27;20240;-57
2024/04/10 03:39:31;;;;;;;8.18;3.15;;;;;;;;;;5206262;27;20379;-58
2024/04/10 03:41:57;;;;;;;6.17;2.57;;;;;;;;;;5237005;27;20235;-57
2024/04/10 03:44:25;;;;;;;5.93;2.47;;;;;;;;;;5239586;27;20263;-58
2024/04/10 03:46:51;;;;;;;6.73;2.53;;;;;;;;;;5212059;27;20284;-57
2024/04/10 03:49:18;;;;;;;6.67;2.77;;;;;;;;;;5208122;27;20237;-57
2024/04/10 03:51:45;;;;;;;6.70;2.33;;;;;;;;;;5234754;27;20270;-57
2024/04/10 03:54:11;;;;;;;7.80;3.17;;;;;;;;;;5242780;27;20265;-58
2024/04/10 03:56:37;;;;;;;8.00;2.80;;;;;;;;;;5221300;27;20565;-57
2024/04/10 03:59:03;;;;;;;3.83;2.27;;;;;;;;;;5211465;27;20240;-58
2024/04/10 04:01:29;;;;;;;4.63;2.33;;;;;;;;;;5221391;27;20232;-58
2024/04/10 04:03:58;;;;;;;6.87;2.90;;;;;;;;;;5232265;27;20309;-57
2024/04/10 04:06:24;;;;;;;4.83;2.30;;;;;;;;;;5231469;27;20271;-58
2024/04/10 04:08:50;;;;;;;10.47;3.00;;;;;;;;;;5242639;27;20270;-59
2024/04/10 04:11:16;;;;;;;5.93;2.23;;;;;;;;;;5228122;27;20274;-59
2024/04/10 04:13:42;;;;;;;4.80;2.30;;;;;;;;;;5235188;27;20235;-59
2024/04/10 04:16:08;;;;;;;5.43;2.70;;;;;;;;;;5228009;27;20261;-60
2024/04/10 04:18:35;;;;;;;6.23;2.90;;;;;;;;;;5210238;27;20288;-59
2024/04/10 04:21:01;;;;;;;5.37;2.90;;;;;;;;;;5221795;27;20257;-59
2024/04/10 04:23:27;;;;;;;7.90;3.10;;;;;;;;;;5209367;27;20267;-59
2024/04/10 04:25:53;;;;;;;5.40;2.70;;;;;;;;;;5219056;27;20236;-59
2024/04/10 04:28:19;;;;;;;11.87;4.03;;;;;;;;;;5226931;27;20292;-59
2024/04/10 04:30:48;;;;;;;9.67;2.77;;;;;;;;;;5217436;27;20244;-59
2024/04/10 04:33:15;;;;;;;9.20;3.10;;;;;;;;;;5209742;27;20712;-59
2024/04/10 04:35:41;;;;;;;7.70;2.90;;;;;;;;;;5212526;27;20697;-59
2024/04/10 04:38:07;;;;;;;6.27;2.60;;;;;;;;;;5224991;27;20282;-59
2024/04/10 04:40:33;;;;;;;6.10;3.23;;;;;;;;;;5237541;27;20279;-59
2024/04/10 04:43:02;;;;;;;7.23;2.70;;;;;;;;;;5222324;27;20247;-59
2024/04/10 04:45:28;;;;;;;7.30;2.80;;;;;;;;;;5237356;27;20237;-58
2024/04/10 04:47:54;;;;;;;6.77;2.40;;;;;;;;;;5222451;27;20276;-59
2024/04/10 04:50:20;;;;;;;6.07;3.10;;;;;;;;;;5227286;27;20911;-59
2024/04/10 04:52:46;;;;;;;6.97;2.83;;;;;;;;;;5235040;27;20763;-59
2024/04/10 04:55:12;;;;;;;8.57;3.60;;;;;;;;;;5212903;27;20235;-59
2024/04/10 04:57:38;;;;;;;8.33;2.80;;;;;;;;;;5227376;27;20235;-59
2024/04/10 05:00:11;;;;;;;8.53;3.17;;;;;;;;;;5222257;27;20236;-59
2024/04/10 05:02:37;;;;;;;7.53;3.00;;;;;;;;;;5231996;27;20782;-59
2024/04/10 05:05:05;;;;;;;8.47;3.37;;;;;;;;;;5224504;27;20255;-59
2024/04/10 05:07:31;;;;;;;7.13;2.90;;;;;;;;;;5218043;27;20240;-59
2024/04/10 05:09:57;;;;;;;8.27;3.13;;;;;;;;;;5240176;27;20371;-59
2024/04/10 05:12:23;;;;;;;6.50;2.87;;;;;;;;;;5231941;27;20252;-59
2024/04/10 05:14:50;;;;;;;7.17;2.80;;;;;;;;;;5235337;27;20286;-59
2024/04/10 05:17:16;;;;;;;9.63;2.63;;;;;;;;;;5241597;27;20273;-59
2024/04/10 05:19:42;;;;;;;6.53;2.90;;;;;;;;;;5241145;27;21470;-59
2024/04/10 05:22:09;;;;;;;6.87;3.13;;;;;;;;;;5245588;27;20787;-59
2024/04/10 05:24:35;;;;;;;9.40;3.30;;;;;;;;;;5226022;27;20301;-59
2024/04/10 05:27:04;;;;;;;5.97;2.73;;;;;;;;;;5233541;27;20338;-60
2024/04/10 05:29:30;;;;;;;10.60;3.00;;;;;;;;;;5238369;27;20641;-60
2024/04/10 05:31:57;;;;;;;6.17;2.77;;;;;;;;;;5229776;27;20232;-60
2024/04/10 05:34:23;;;;;;;7.40;2.73;;;;;;;;;;5217418;27;20232;-60
2024/04/10 05:36:49;;;;;;;6.57;2.83;;;;;;;;;;5241259;27;20262;-61
2024/04/10 05:39:24;;;;;;;4.67;2.57;;;;;;;;;;5219344;27;20237;-61
2024/04/10 05:41:50;;;;;;;6.80;2.33;;;;;;;;;;5207451;27;20228;-60
2024/04/10 05:44:17;;;;;;;9.90;3.10;;;;;;;;;;5217640;27;20240;-61
2024/04/10 05:46:43;;;;;;;5.23;2.73;;;;;;;;;;5230207;27;20231;-61
2024/04/10 05:49:12;;;;;;;8.67;3.63;;;;;;;;;;5230577;27;20334;-60
2024/04/10 05:51:38;;;;;;;6.83;2.73;;;;;;;;;;5234288;27;20236;-60
2024/04/10 05:54:04;;;;;;;7.03;2.83;;;;;;;;;;5234569;27;20636;-60
2024/04/10 05:56:30;;;;;;;8.70;3.00;;;;;;;;;;5232592;27;20556;-60
2024/04/10 05:58:56;;;;;;;7.10;3.37;;;;;;;;;;5237307;27;20270;-60
2024/04/10 06:01:22;;;;;;;6.40;2.67;;;;;;;;;;5230927;27;20235;-61
2024/04/10 06:03:51;;;;;;;6.37;2.30;;;;;;;;;;5220482;27;20607;-60
2024/04/10 06:06:17;;;;;;;8.33;3.13;;;;;;;;;;5242514;27;20239;-60
2024/04/10 06:08:43;;;;;;;6.93;2.70;;;;;;;;;;5240850;27;20267;-61
2024/04/10 06:11:09;;;;;;;7.83;2.33;;;;;;;;;;5239276;27;20279;-60
2024/04/10 06:13:35;;;;;;;6.60;3.53;;;;;;;;;;5212850;27;20241;-60
2024/04/10 06:16:05;;;;;;;6.07;2.63;;;;;;;;;;5236178;27;20240;-60
2024/04/10 06:18:32;;;;;;;5.17;2.70;;;;;;;;;;5225898;27;20236;-60
2024/04/10 06:20:58;;;;;;;5.43;2.80;;;;;;;;;;5210600;27;20849;-60
2024/04/10 06:23:24;;;;;;;8.67;3.57;;;;;;;;;;5220859;27;20243;-60
2024/04/10 06:25:51;;;;;;;6.57;2.33;;;;;;;;;;5216336;27;20363;-60
2024/04/10 06:28:18;;;;;;;8.80;3.13;;;;;;;;;;5236331;27;20267;-60
2024/04/10 06:30:44;;;;;;;7.30;2.40;;;;;;;;;;5211224;27;20284;-60
2024/04/10 06:33:10;;;;;;;6.70;2.63;;;;;;;;;;5229878;27;20236;-60
2024/04/10 06:35:36;;;;;;;5.53;2.83;;;;;;;;;;5218967;27;20229;-60
2024/04/10 06:38:02;;;;;;;5.80;2.13;;;;;;;;;;5225636;27;20822;-60
2024/04/10 06:40:28;;;;;;;4.50;2.53;;;;;;;;;;5222109;27;20872;-60
2024/04/10 06:42:54;;;;;;;9.50;2.73;;;;;;;;;;5230146;27;20274;-60
2024/04/10 06:45:21;;;;;;;7.47;2.33;;;;;;;;;;5227474;27;20232;-60
2024/04/10 06:47:47;;;;;;;9.77;3.10;;;;;;;;;;5227144;27;20354;-60
2024/04/10 06:50:13;;;;;;;5.03;2.17;;;;;;;;;;5226015;27;20239;-60
2024/04/10 06:52:39;;;;;;;5.87;2.80;;;;;;;;;;5221859;27;20278;-60
2024/04/10 06:55:06;;;;;;;6.60;2.53;;;;;;;;;;5236091;27;20346;-60
2024/04/10 06:57:32;;;;;;;5.47;2.37;;;;;;;;;;5237127;27;20363;-60
2024/04/10 07:00:02;;;;;;;6.50;2.67;;;;;;;;;;5214914;27;20236;-60
2024/04/10 07:02:29;;;;;;;5.47;2.43;;;;;;;;;;5227464;27;20558;-60
2024/04/10 07:04:55;;;;;;;8.27;3.23;;;;;;;;;;5219259;27;20282;-60
2024/04/10 07:07:21;;;;;;;8.30;2.70;;;;;;;;;;5223669;27;20235;-60
2024/04/10 07:09:48;;;;;;;5.57;2.80;;;;;;;;;;5228124;27;20265;-60
2024/04/10 07:12:15;;;;;;;7.33;2.80;;;;;;;;;;5217362;27;20666;-59
2024/04/10 07:14:41;;;;;;;6.70;2.73;;;;;;;;;;5215537;27;20247;-60
2024/04/10 07:17:07;;;;;;;6.60;2.63;;;;;;;;;;5234406;27;20276;-59
2024/04/10 07:19:36;;;;;;;6.57;2.70;;;;;;;;;;5239095;27;20345;-60
2024/04/10 07:22:06;;;;;;;8.37;3.40;;;;;;;;;;5239180;27;20240;-60
2024/04/10 07:24:32;;;;;;;5.80;3.13;;;;;;;;;;5238601;27;20236;-60
2024/04/10 07:26:58;;;;;;;6.80;2.70;;;;;;;;;;5241552;27;20311;-60
2024/04/10 07:29:24;;;;;;;9.83;3.37;;;;;;;;;;5241999;27;20239;-59
2024/04/10 07:31:50;;;;;;;9.47;3.20;;;;;;;;;;5241121;27;20846;-59
2024/04/10 07:34:17;;;;;;;6.77;2.67;;;;;;;;;;5232356;27;20241;-60
2024/04/10 07:36:43;;;;;;;8.20;3.03;;;;;;;;;;5225848;27;20232;-60
2024/04/10 07:39:09;;;;;;;6.07;3.00;;;;;;;;;;5209891;27;20779;-57
2024/04/10 07:41:36;;;;;;;4.93;2.90;;;;;;;;;;5212890;27;20286;-57
2024/04/10 07:44:02;;;;;;;9.53;3.57;;;;;;;;;;5242755;27;20273;-57
2024/04/10 07:46:28;;;;;;;5.13;3.20;;;;;;;;;;5242085;27;20703;-57
2024/04/10 07:48:55;;;;;;;5.57;2.63;;;;;;;;;;5216221;27;20705;-58
2024/04/10 07:51:22;;;;;;;7.60;2.60;;;;;;;;;;5210541;27;20229;-57
2024/04/10 07:53:48;;;;;;;4.60;2.90;;;;;;;;;;5242072;27;20236;-57
2024/04/10 07:56:14;;;;;;;4.93;2.87;;;;;;;;;;5238670;27;20235;-58
2024/04/10 07:58:41;;;;;;;6.30;3.20;;;;;;;;;;5243120;27;20271;-57
2024/04/10 08:01:07;;;;;;;6.80;2.70;;;;;;;;;;5242275;27;20231;-57
2024/04/10 08:03:36;;;;;;;6.07;3.00;;;;;;;;;;5222571;27;20241;-57
2024/04/10 08:06:03;;;;;;;6.03;2.53;;;;;;;;;;5229598;27;20323;-58
2024/04/10 08:08:29;;;;;;;4.40;3.40;;;;;;;;;;5239773;27;20232;-58
2024/04/10 08:11:05;;;;;;;6.93;2.47;;;;;;;;;;5240789;27;20758;-57
2024/04/10 08:13:32;;;;;;;15.07;3.30;;;;;;;;;;5241594;27;20282;-57
2024/04/10 08:15:59;;;;;;;6.57;3.43;;;;;;;;;;5239996;27;20287;-57
2024/04/10 08:18:26;;;;;;;7.93;3.13;;;;;;;;;;5228950;27;20351;-57
2024/04/10 08:21:02;;;;;;;7.70;2.93;;;;;;;;;;5209013;27;20693;-57
2024/04/10 08:23:29;;;;;;;10.47;5.40;;;;;;;;;;5239648;27;20573;-57
2024/04/10 08:25:55;;;;;;;7.93;4.33;;;;;;;;;;5239320;27;20562;-60
2024/04/10 08:28:21;;;;;;;12.20;3.53;;;;;;;;;;5241727;27;20789;-60
2024/04/10 08:30:48;;;;;;;11.23;4.83;;;;;;;;;;5236797;27;20232;-61
2024/04/10 08:33:14;;;;;;;14.13;4.83;;;;;;;;;;5235107;27;20233;-60
2024/04/10 08:35:42;;;;;;;12.60;4.47;;;;;;;;;;5239454;27;20263;-60
2024/04/10 08:38:08;;;;;;;16.63;3.77;;;;;;;;;;5236017;27;20284;-60
2024/04/10 08:40:38;;;;;;;10.63;4.63;;;;;;;;;;5207377;27;20754;-61
2024/04/10 08:43:06;;;;;;;10.53;4.17;;;;;;;;;;5213358;27;20289;-60
2024/04/10 08:45:32;;;;;;;10.33;3.83;;;;;;;;;;5252414;27;20229;-59
2024/04/10 08:48:02;;;;;;;7.17;3.80;;;;;;;;;;5232443;27;20236;-59
2024/04/10 08:50:32;;;;;;;9.73;3.93;;;;;;;;;;5248670;27;20255;-59
2024/04/10 08:52:58;;;;;;;7.33;3.97;;;;;;;;;;5241272;27;20774;-60
2024/04/10 08:55:27;;;;;;;8.63;3.60;;;;;;;;;;5235095;27;21026;-60
2024/04/10 08:57:53;;;;;;;11.30;3.90;;;;;;;;;;5223677;27;20275;-61
2024/04/10 09:00:19;;;;;;;6.00;3.63;;;;;;;;;;5215669;27;20228;-61
2024/04/10 09:02:45;;;;;;;7.87;3.43;;;;;;;;;;5210947;27;20237;-61
2024/04/10 09:05:11;;;;;;;7.90;3.50;;;;;;;;;;5230070;27;20697;-61
2024/04/10 09:07:37;;;;;;;6.20;2.90;;;;;;;;;;5235930;27;20247;-61
2024/04/10 09:10:10;;;;;;;9.20;4.03;;;;;;;;;;5233707;27;20278;-61
2024/04/10 09:12:36;;;;;;;7.90;3.50;;;;;;;;;;5223815;27;20362;-61
2024/04/10 09:15:09;;;;;;;9.07;3.57;;;;;;;;;;5220172;27;20933;-61
2024/04/10 09:17:35;;;;;;;9.57;3.83;;;;;;;;;;5241654;27;20278;-60
2024/04/10 09:20:11;;;;;;;7.40;4.47;;;;;;;;;;5240039;27;20748;-60
2024/04/10 09:22:37;;;;;;;6.73;3.43;;;;;;;;;;5241190;27;20875;-60
2024/04/10 09:25:10;;;;;;;11.73;3.83;;;;;;;;;;5238466;27;20359;-60
2024/04/10 09:27:36;;;;;;;976.57;484.47;;;;;;;;;;5241372;27;20357;-61
2024/04/10 09:30:03;;;;;;;1999.90;882.10;;;;;;;;;;5240282;27;20236;-62
2024/04/10 09:32:29;;;;;;;1034.87;532.93;;;;;;;;;;5240713;27;20236;-61
2024/04/10 09:34:56;;;;;;;1075.50;548.73;;;;;;;;;;5237530;27;20722;-66
2024/04/10 09:37:22;;;;;;;723.97;391.77;;;;;;;;;;5240584;27;20352;-61
2024/04/10 09:39:50;;;;;;;575.23;304.20;;;;;;;;;;5236845;27;20690;-59
2024/04/10 09:42:32;;;;;;;512.40;272.57;;;;;;;;;;5241049;27;20233;-59
2024/04/10 09:45:12;;;;;;;388.83;200.27;;;;;;;;;;5239861;27;20367;-61
2024/04/10 09:47:40;;;;;;;482.27;246.93;;;;;;;;;;5226385;27;20238;-61
2024/04/10 09:50:12;;;;;;;347.60;180.93;;;;;;;;;;5239773;27;20237;-60
2024/04/10 09:52:39;;;;;;;301.63;151.87;;;;;;;;;;5239958;27;20287;-60
2024/04/10 09:55:05;;;;;;;249.63;130.30;;;;;;;;;;5238772;27;20244;-60
2024/04/10 09:57:33;;;;;;;218.67;102.90;;;;;;;;;;5240784;27;20292;-60
2024/04/10 10:00:01;;;;;;;161.73;78.93;;;;;;;;;;5239646;27;20238;-60
2024/04/10 10:02:27;;;;;;;109.57;53.97;;;;;;;;;;5239561;27;20351;-59
2024/04/10 10:04:53;;;;;;;87.87;46.00;;;;;;;;;;5239174;27;20554;-60
2024/04/10 10:07:22;;;;;;;83.13;41.07;;;;;;;;;;5240980;27;20985;-59
2024/04/10 10:09:50;;;;;;;65.73;36.90;;;;;;;;;;5239455;27;20278;-60
2024/04/10 10:12:24;;;;;;;44.30;24.23;;;;;;;;;;5240492;27;20242;-61
2024/04/10 10:14:50;;;;;;;32.57;16.87;;;;;;;;;;5239151;27;20511;-61
2024/04/10 10:17:24;;;;;;;24.47;14.30;;;;;;;;;;5237887;27;20242;-61
2024/04/10 10:19:50;;;;;;;23.03;12.67;;;;;;;;;;5238659;27;20234;-61
2024/04/10 10:22:16;;;;;;;24.03;12.20;;;;;;;;;;5239827;27;20361;-61
2024/04/10 10:24:42;;;;;;;21.90;11.37;;;;;;;;;;5238667;27;21160;-61
2024/04/10 10:27:08;;;;;;;19.93;8.73;;;;;;;;;;5240605;27;20234;-61
2024/04/10 10:29:36;;;;;;;17.50;9.20;;;;;;;;;;5239687;27;20752;-61
2024/04/10 10:32:05;;;;;;;12.47;6.13;;;;;;;;;;5239617;27;20379;-62
2024/04/10 10:34:32;;;;;;;11.27;4.90;;;;;;;;;;5225711;27;20711;-61
2024/04/10 10:37:07;;;;;;;8.70;4.87;;;;;;;;;;5237522;27;20232;-61
2024/04/10 10:39:33;;;;;;;8.60;5.27;;;;;;;;;;5239516;27;20232;-61
2024/04/10 10:42:08;;;;;;;8.10;4.10;;;;;;;;;;5240331;27;20723;-62
2024/04/10 10:44:35;;;;;;;8.07;3.47;;;;;;;;;;5239726;27;20235;-61
2024/04/10 10:47:07;;;;;;;7.17;3.33;;;;;;;;;;5239511;27;20644;-61
2024/04/10 10:49:33;;;;;;;6.57;3.07;;;;;;;;;;5239944;27;20286;-62
2024/04/10 10:51:59;;;;;;;7.47;3.20;;;;;;;;;;5239348;27;20292;-62
2024/04/10 10:54:25;;;;;;;7.73;3.10;;;;;;;;;;5239704;27;20235;-62
2024/04/10 10:56:51;;;;;;;5.47;2.53;;;;;;;;;;5239098;27;20746;-62
2024/04/10 10:59:17;;;;;;;4.60;3.10;;;;;;;;;;5237890;27;20263;-62
2024/04/10 11:01:43;;;;;;;7.87;2.50;;;;;;;;;;5239214;27;20232;-62
2024/04/10 11:04:17;;;;;;;8.27;2.67;;;;;;;;;;5238642;27;20278;-62
2024/04/10 11:06:43;;;;;;;5.17;2.30;;;;;;;;;;5224846;27;20561;-61
2024/04/10 11:09:15;;;;;;;4.73;2.23;;;;;;;;;;5240492;27;20877;-60
2024/04/10 11:11:41;;;;;;;5.90;2.53;;;;;;;;;;5238203;27;20240;-60
2024/04/10 11:14:14;;;;;;;6.17;2.20;;;;;;;;;;5239723;27;20696;-61
2024/04/10 11:16:40;;;;;;;4.70;1.77;;;;;;;;;;5238010;27;20236;-60
2024/04/10 11:19:07;;;;;;;9.57;2.17;;;;;;;;;;5240286;27;20227;-62
2024/04/10 11:21:33;;;;;;;4.90;2.40;;;;;;;;;;5238609;27;20554;-60
2024/04/10 11:23:59;;;;;;;5.67;2.10;;;;;;;;;;5239772;27;20236;-60
2024/04/10 11:26:26;;;;;;;7.67;3.90;;;;;;;;;;5238442;27;20266;-60
2024/04/10 11:28:56;;;;;;;5.60;2.57;;;;;;;;;;5239881;27;20315;-60
2024/04/10 11:31:22;;;;;;;3.40;1.77;;;;;;;;;;5238878;27;20232;-61
2024/04/10 11:33:48;;;;;;;6.57;2.10;;;;;;;;;;5238762;27;20220;-61
2024/04/10 11:36:15;;;;;;;5.30;1.97;;;;;;;;;;5205708;27;20229;-61
2024/04/10 11:38:42;;;;;;;3.70;2.27;;;;;;;;;;5223850;27;20237;-60
2024/04/10 11:41:13;;;;;;;5.57;2.30;;;;;;;;;;5204994;27;20348;-61
2024/04/10 11:43:39;;;;;;;4.90;2.40;;;;;;;;;;5239297;27;20367;-60
2024/04/10 11:46:05;;;;;;;3.10;1.93;;;;;;;;;;5239017;27;20242;-60
2024/04/10 11:48:31;;;;;;;4.10;1.90;;;;;;;;;;5238697;27;20248;-61
2024/04/10 11:50:57;;;;;;;6.10;2.47;;;;;;;;;;5236668;27;20281;-61
2024/04/10 11:53:24;;;;;;;6.00;2.27;;;;;;;;;;5235723;27;20231;-61
2024/04/10 11:55:50;;;;;;;5.80;2.67;;;;;;;;;;5237204;27;20275;-60
2024/04/10 11:58:16;;;;;;;4.67;1.83;;;;;;;;;;5239759;27;20279;-62
2024/04/10 12:00:42;;;;;;;7.53;2.00;;;;;;;;;;5213036;27;20281;-62
2024/04/10 12:03:08;;;;;;;4.77;2.30;;;;;;;;;;5240865;27;20708;-63
2024/04/10 12:05:37;;;;;;;7.30;2.30;;;;;;;;;;5239231;27;20540;-60
2024/04/10 12:08:04;;;;;;;4.00;1.83;;;;;;;;;;5236977;27;20224;-60
2024/04/10 12:10:31;;;;;;;4.90;2.03;;;;;;;;;;5217188;27;20295;-60
2024/04/10 12:12:58;;;;;;;5.00;2.20;;;;;;;;;;5228250;27;20357;-60
2024/04/10 12:15:24;;;;;;;3.87;1.93;;;;;;;;;;5225923;27;20259;-61
2024/04/10 12:17:51;;;;;;;4.07;1.67;;;;;;;;;;5211988;27;20237;-60
2024/04/10 12:20:17;;;;;;;5.07;2.30;;;;;;;;;;5235025;27;20308;-61
2024/04/10 12:22:45;;;;;;;5.00;2.23;;;;;;;;;;5232339;27;20282;-61
2024/04/10 12:25:11;;;;;;;5.53;2.10;;;;;;;;;;5228848;27;20342;-60
2024/04/10 12:27:37;;;;;;;8.43;2.10;;;;;;;;;;5228690;27;20718;-61
2024/04/10 12:30:03;;;;;;;4.00;2.07;;;;;;;;;;5227302;27;20350;-62
2024/04/10 12:32:29;;;;;;;5.53;2.17;;;;;;;;;;5230690;27;20590;-62
2024/04/10 12:38:02;;;;;;;4.00;1.70;;;;;;;;;;5222461;27;20576;-62
2024/04/10 12:38:03;;;;;;;2.90;1.63;;;;;;;;;;5221530;27;20270;-62
2024/04/10 12:40:29;;;;;;;3.03;1.60;;;;;;;;;;5223225;27;20806;-62
2024/04/10 12:42:55;;;;;;;2.47;1.43;;;;;;;;;;5216434;27;20331;-62
2024/04/10 12:45:21;;;;;;;2.40;1.53;;;;;;;;;;5224074;27;20240;-61
2024/04/10 12:47:47;;;;;;;3.60;2.17;;;;;;;;;;5243588;27;20724;-62
2024/04/10 12:50:13;;;;;;;5.10;1.90;;;;;;;;;;5223818;27;20287;-62
2024/04/10 12:52:40;;;;;;;5.30;1.90;;;;;;;;;;5227768;27;20621;-63
2024/04/10 12:55:08;;;;;;;5.23;1.83;;;;;;;;;;5228292;27;20257;-62
2024/04/10 12:57:35;;;;;;;4.23;2.00;;;;;;;;;;5222743;27;20283;-62
2024/04/10 13:00:01;;;;;;;3.47;1.60;;;;;;;;;;5219115;27;20836;-61
2024/04/10 13:02:28;;;;;;;2.43;1.67;;;;;;;;;;5229361;27;21057;-62
2024/04/10 13:04:54;;;;;;;8.60;3.37;;;;;;;;;;5231903;27;20884;-62
2024/04/10 13:07:20;;;;;;;6.93;2.33;;;;;;;;;;5234380;27;20224;-62
2024/04/10 13:09:50;;;;;;;3.23;1.90;;;;;;;;;;5230544;27;20942;-62
2024/04/10 13:12:17;;;;;;;4.33;1.80;;;;;;;;;;5221375;27;20279;-62
2024/04/10 13:14:43;;;;;;;5.27;2.43;;;;;;;;;;5232824;27;20286;-61
2024/04/10 13:17:09;;;;;;;6.27;2.63;;;;;;;;;;5222609;27;20287;-61
2024/04/10 13:19:35;;;;;;;3.63;1.93;;;;;;;;;;5226939;27;20620;-63
2024/04/10 13:22:02;;;;;;;3.17;1.63;;;;;;;;;;5231273;27;20232;-63
2024/04/10 13:24:29;;;;;;;3.50;1.73;;;;;;;;;;5228024;27;20239;-63
2024/04/10 13:26:55;;;;;;;4.53;1.90;;;;;;;;;;5229085;27;20418;-62
2024/04/10 13:29:21;;;;;;;3.70;1.93;;;;;;;;;;5235660;27;20248;-61
2024/04/10 13:31:47;;;;;;;8.00;2.10;;;;;;;;;;5228536;27;20330;-62
2024/04/10 13:34:13;;;;;;;2.00;1.57;;;;;;;;;;5220421;27;20577;-62
2024/04/10 13:36:39;;;;;;;4.13;1.90;;;;;;;;;;5228622;27;20262;-61
2024/04/10 13:39:05;;;;;;;4.93;1.70;;;;;;;;;;5230632;27;20231;-60
2024/04/10 13:41:32;;;;;;;3.03;1.50;;;;;;;;;;5230456;27;20424;-59
2024/04/10 13:43:59;;;;;;;3.83;1.80;;;;;;;;;;5231448;27;20240;-58
2024/04/10 13:46:25;;;;;;;2.17;1.70;;;;;;;;;;5226139;27;20347;-60
2024/04/10 13:48:52;;;;;;;3.30;1.90;;;;;;;;;;5229874;27;20236;-60
2024/04/10 13:51:18;;;;;;;4.33;1.70;;;;;;;;;;5236409;27;20337;-58
2024/04/10 13:53:44;;;;;;;2.90;1.90;;;;;;;;;;5219144;27;20357;-59
2024/04/10 13:56:11;;;;;;;3.43;1.70;;;;;;;;;;5222409;27;21110;-59
2024/04/10 13:58:39;;;;;;;2.90;1.63;;;;;;;;;;5237863;27;20236;-59
2024/04/10 14:01:15;;;;;;;4.60;2.00;;;;;;;;;;5223666;27;20292;-60
2024/04/10 14:03:42;;;;;;;3.47;1.67;;;;;;;;;;5239718;27;20228;-58
2024/04/10 14:06:08;;;;;;;3.13;1.77;;;;;;;;;;5220219;27;20248;-63
2024/04/10 14:08:35;;;;;;;3.60;1.60;;;;;;;;;;5223785;27;20324;-59
2024/04/10 14:11:01;;;;;;;4.57;1.63;;;;;;;;;;5228137;27;20266;-59
2024/04/10 14:13:28;;;;;;;4.23;1.97;;;;;;;;;;5241661;27;20286;-58
2024/04/10 14:15:55;;;;;;;3.37;1.53;;;;;;;;;;5271767;27;20227;-58
2024/04/10 14:18:21;;;;;;;3.50;1.67;;;;;;;;;;5257269;27;20243;-59
2024/04/10 14:20:48;;;;;;;5.17;2.03;;;;;;;;;;5231348;27;20233;-56
2024/04/10 14:23:14;;;;;;;5.17;1.60;;;;;;;;;;5227017;27;20717;-56
2024/04/10 14:25:40;;;;;;;2.70;1.40;;;;;;;;;;5211339;27;20237;-57
2024/04/10 14:28:06;;;;;;;3.73;1.53;;;;;;;;;;5233443;27;20770;-58
2024/04/10 14:30:33;;;;;;;3.47;1.73;;;;;;;;;;5223689;27;20296;-56
2024/04/10 14:33:00;;;;;;;6.40;1.90;;;;;;;;;;5236557;27;20725;-57
2024/04/10 14:35:26;;;;;;;4.00;1.67;;;;;;;;;;5228404;27;20233;-59
2024/04/10 14:37:52;;;;;;;2.83;1.40;;;;;;;;;;5217045;27;20239;-58